Time;durP1;ratioP1;P1;durP2;ratioP2;P2;SDS_P1;SDS_P2;PMS_P1;PMS_P2;Temp;Humidity;BMP_temperature;BMP_pressure;BME280_temperature;BME280_humidity;BME280_pressure;Samples;Min_cycle;Max_cycle;Signal;HPM_P1;HPM_P2
2021/06/09 00:01:26;;;;;;;6.95;1.60;;;;;;;;;;5019768;28;20038;-65
2021/06/09 00:03:52;;;;;;;6.13;1.42;;;;;;;;;;5020719;28;20434;-64
2021/06/09 00:06:18;;;;;;;6.35;1.55;;;;;;;;;;5021379;28;20052;-65
2021/06/09 00:08:44;;;;;;;6.35;1.17;;;;;;;;;;5020659;28;20032;-65
2021/06/09 00:11:10;;;;;;;8.38;1.15;;;;;;;;;;4983949;28;20195;-65
2021/06/09 00:13:36;;;;;;;9.20;1.48;;;;;;;;;;4983711;28;20038;-65
2021/06/09 00:16:07;;;;;;;9.13;1.85;;;;;;;;;;4985317;28;20536;-64
2021/06/09 00:18:33;;;;;;;5.70;1.10;;;;;;;;;;4983432;28;20035;-65
2021/06/09 00:20:59;;;;;;;7.53;1.17;;;;;;;;;;4984499;28;20125;-64
2021/06/09 00:23:30;;;;;;;6.53;1.15;;;;;;;;;;4978498;28;20132;-64
2021/06/09 00:25:57;;;;;;;5.97;1.13;;;;;;;;;;4987519;28;20577;-64
2021/06/09 00:28:23;;;;;;;10.18;1.35;;;;;;;;;;4984421;28;22868;-64
2021/06/09 00:30:49;;;;;;;4.40;0.98;;;;;;;;;;4986140;28;20045;-64
2021/06/09 00:33:15;;;;;;;5.90;1.17;;;;;;;;;;4985216;28;20046;-62
2021/06/09 00:35:43;;;;;;;7.85;1.65;;;;;;;;;;4982887;28;20100;-65
2021/06/09 00:38:12;;;;;;;7.38;1.13;;;;;;;;;;4984696;28;20417;-63
2021/06/09 00:40:38;;;;;;;5.30;1.27;;;;;;;;;;4982343;28;20133;-64
2021/06/09 00:43:10;;;;;;;3.92;0.98;;;;;;;;;;4983497;28;20078;-64
2021/06/09 00:45:36;;;;;;;4.10;0.90;;;;;;;;;;4983025;28;20049;-64
2021/06/09 00:48:03;;;;;;;7.45;1.20;;;;;;;;;;4988049;28;20719;-64
2021/06/09 00:50:28;;;;;;;3.60;0.90;;;;;;;;;;4983781;28;20902;-64
2021/06/09 00:53:26;;;;;;;5.25;1.13;;;;;;;;;;4984845;28;20061;-65
2021/06/09 00:55:40;;;;;;;6.03;1.10;;;;;;;;;;4981842;28;20042;-64
2021/06/09 00:58:06;;;;;;;6.25;0.93;;;;;;;;;;4985147;28;20108;-62
2021/06/09 01:00:32;;;;;;;5.57;0.93;;;;;;;;;;4984977;28;20042;-65
2021/06/09 01:02:58;;;;;;;6.60;1.10;;;;;;;;;;4983637;28;20054;-64
2021/06/09 01:05:24;;;;;;;7.30;1.00;;;;;;;;;;4980219;28;20045;-63
2021/06/09 01:07:50;;;;;;;5.68;0.80;;;;;;;;;;4983769;28;20473;-63
2021/06/09 01:10:15;;;;;;;6.60;1.00;;;;;;;;;;5009765;28;20127;-63
2021/06/09 01:12:42;;;;;;;4.50;0.90;;;;;;;;;;5021855;28;20049;-62
2021/06/09 01:15:08;;;;;;;3.63;1.10;;;;;;;;;;5021275;28;20083;-64
2021/06/09 01:17:33;;;;;;;6.00;1.55;;;;;;;;;;5019855;28;20037;-64
2021/06/09 01:20:00;;;;;;;8.35;1.20;;;;;;;;;;5020912;28;20050;-64
2021/06/09 01:22:26;;;;;;;4.75;0.90;;;;;;;;;;5020691;28;20060;-64
2021/06/09 01:24:51;;;;;;;11.63;1.23;;;;;;;;;;5002086;28;20049;-62
2021/06/09 01:27:21;;;;;;;7.93;1.08;;;;;;;;;;5019764;28;20053;-64
2021/06/09 01:29:47;;;;;;;6.72;1.58;;;;;;;;;;5019608;28;20060;-63
2021/06/09 01:32:33;;;;;;;5.25;1.50;;;;;;;;;;4976628;28;20046;-63
2021/06/09 01:34:59;;;;;;;6.32;1.40;;;;;;;;;;4979079;28;20062;-64
2021/06/09 01:37:25;;;;;;;6.93;1.48;;;;;;;;;;4977427;28;20116;-64
2021/06/09 01:39:53;;;;;;;6.97;1.58;;;;;;;;;;4977648;28;20056;-65
2021/06/09 01:42:23;;;;;;;9.10;3.30;;;;;;;;;;4976341;28;20124;-63
2021/06/09 01:44:49;;;;;;;5.93;2.05;;;;;;;;;;4979300;28;20042;-63
2021/06/09 01:47:14;;;;;;;5.22;1.80;;;;;;;;;;4976856;28;20105;-64
2021/06/09 01:49:40;;;;;;;5.47;2.10;;;;;;;;;;4959716;28;20102;-62
2021/06/09 01:52:06;;;;;;;7.18;1.90;;;;;;;;;;4976053;28;20104;-63
2021/06/09 01:54:32;;;;;;;6.18;2.00;;;;;;;;;;4976012;28;20051;-63
2021/06/09 01:56:58;;;;;;;4.63;2.28;;;;;;;;;;4976333;28;20058;-63
2021/06/09 01:59:23;;;;;;;5.75;1.90;;;;;;;;;;4976348;28;20165;-64
2021/06/09 02:01:50;;;;;;;3.95;1.60;;;;;;;;;;4976905;28;20077;-64
2021/06/09 02:04:16;;;;;;;5.65;1.90;;;;;;;;;;4964920;28;20943;-65
2021/06/09 02:06:43;;;;;;;5.32;2.30;;;;;;;;;;4978743;28;20030;-64
2021/06/09 02:09:10;;;;;;;4.25;2.00;;;;;;;;;;4967739;28;20188;-67
2021/06/09 02:12:07;;;;;;;4.35;2.00;;;;;;;;;;4985627;28;20038;-64
2021/06/09 02:14:34;;;;;;;4.70;1.92;;;;;;;;;;4896627;29;20063;-65
2021/06/09 02:17:00;;;;;;;5.18;1.80;;;;;;;;;;4914192;29;20043;-65
2021/06/09 02:19:26;;;;;;;5.20;1.70;;;;;;;;;;4990251;28;20053;-64
2021/06/09 02:21:52;;;;;;;4.30;1.73;;;;;;;;;;5007541;28;20061;-64
2021/06/09 02:24:19;;;;;;;4.28;1.98;;;;;;;;;;5002989;28;20056;-64
2021/06/09 02:26:45;;;;;;;7.65;2.20;;;;;;;;;;5007471;28;20494;-64
2021/06/09 02:29:12;;;;;;;6.82;2.10;;;;;;;;;;5011252;28;20092;-64
2021/06/09 02:31:39;;;;;;;5.05;1.85;;;;;;;;;;4994414;28;20157;-64
2021/06/09 02:34:11;;;;;;;5.60;1.90;;;;;;;;;;4999584;28;20073;-63
2021/06/09 02:36:37;;;;;;;8.38;1.92;;;;;;;;;;5006199;28;20045;-63
2021/06/09 02:39:24;;;;;;;6.15;2.10;;;;;;;;;;4961738;28;20070;-64
2021/06/09 02:41:50;;;;;;;9.25;2.40;;;;;;;;;;4967728;28;20077;-63
2021/06/09 02:44:16;;;;;;;6.75;1.80;;;;;;;;;;4967249;28;20424;-63
2021/06/09 02:46:48;;;;;;;8.20;2.10;;;;;;;;;;4963552;28;20051;-64
2021/06/09 02:49:16;;;;;;;5.53;1.90;;;;;;;;;;4968174;28;20027;-65
2021/06/09 02:51:44;;;;;;;3.65;1.70;;;;;;;;;;4955724;28;20123;-63
2021/06/09 02:54:18;;;;;;;6.15;2.15;;;;;;;;;;4966480;28;20047;-63
2021/06/09 02:56:44;;;;;;;7.35;2.03;;;;;;;;;;4965527;28;20046;-63
2021/06/09 02:59:22;;;;;;;5.03;1.77;;;;;;;;;;4949720;28;20067;-65
2021/06/09 03:01:53;;;;;;;7.97;2.13;;;;;;;;;;4963642;28;20701;-63
2021/06/09 03:04:19;;;;;;;8.95;1.80;;;;;;;;;;4965023;28;20707;-63
2021/06/09 03:06:45;;;;;;;7.65;1.90;;;;;;;;;;4964827;28;20082;-64
2021/06/09 03:09:20;;;;;;;4.18;1.70;;;;;;;;;;4964787;28;20098;-62
2021/06/09 03:11:57;;;;;;;7.30;1.80;;;;;;;;;;5004330;28;20401;-63
2021/06/09 03:17:13;;;;;;;5.63;1.80;;;;;;;;;;5006340;28;20037;-64
2021/06/09 03:19:53;;;;;;;5.10;1.70;;;;;;;;;;5005219;28;20045;-63
2021/06/09 03:22:23;;;;;;;5.13;1.85;;;;;;;;;;5003400;28;20053;-63
2021/06/09 03:24:55;;;;;;;8.70;1.75;;;;;;;;;;5019854;28;20033;-64
2021/06/09 03:27:43;;;;;;;6.78;1.60;;;;;;;;;;5002249;28;20050;-64
2021/06/09 03:30:10;;;;;;;5.05;1.40;;;;;;;;;;5003713;28;20499;-63
2021/06/09 03:32:51;;;;;;;5.22;1.70;;;;;;;;;;5006832;28;20052;-63
2021/06/09 03:35:26;;;;;;;6.35;1.40;;;;;;;;;;5006193;28;20621;-63
2021/06/09 03:37:55;;;;;;;5.03;1.80;;;;;;;;;;5004893;28;20121;-64
2021/06/09 03:40:23;;;;;;;4.90;1.30;;;;;;;;;;5006804;28;20049;-64
2021/06/09 03:42:54;;;;;;;4.82;1.50;;;;;;;;;;5009995;28;20050;-64
2021/06/09 03:45:23;;;;;;;7.25;1.63;;;;;;;;;;4990615;28;20042;-63
2021/06/09 03:47:49;;;;;;;7.40;1.10;;;;;;;;;;5008348;28;20123;-63
2021/06/09 03:50:16;;;;;;;3.60;1.40;;;;;;;;;;5004259;28;20052;-63
2021/06/09 03:52:46;;;;;;;3.10;1.30;;;;;;;;;;5004203;28;20042;-64
2021/06/09 03:55:12;;;;;;;6.35;1.20;;;;;;;;;;5007074;28;20045;-61
2021/06/09 03:57:38;;;;;;;5.78;1.00;;;;;;;;;;5004274;28;20429;-54
2021/06/09 04:00:05;;;;;;;3.50;1.17;;;;;;;;;;5003446;28;20048;-58
2021/06/09 04:02:32;;;;;;;4.55;1.10;;;;;;;;;;5000802;28;20062;-59
2021/06/09 04:04:58;;;;;;;4.40;0.90;;;;;;;;;;5004066;28;20128;-58
2021/06/09 04:07:25;;;;;;;2.95;1.13;;;;;;;;;;5003364;28;20037;-57
2021/06/09 04:09:52;;;;;;;4.43;0.90;;;;;;;;;;5009486;28;20054;-54
2021/06/09 04:12:18;;;;;;;6.03;1.08;;;;;;;;;;5019843;28;20433;-53
2021/06/09 04:14:45;;;;;;;3.88;1.00;;;;;;;;;;5002721;28;20156;-58
2021/06/09 04:17:12;;;;;;;4.63;1.00;;;;;;;;;;4989505;28;20072;-58
2021/06/09 04:19:41;;;;;;;3.70;1.00;;;;;;;;;;5017001;28;20045;-58
2021/06/09 04:22:07;;;;;;;2.72;0.80;;;;;;;;;;5020951;28;20052;-58
2021/06/09 04:24:41;;;;;;;5.57;0.80;;;;;;;;;;5020828;28;20037;-57
2021/06/09 04:27:14;;;;;;;3.33;0.75;;;;;;;;;;5022207;28;20041;-58
2021/06/09 04:29:42;;;;;;;2.80;0.80;;;;;;;;;;5016535;28;20045;-59
2021/06/09 04:32:08;;;;;;;3.25;0.65;;;;;;;;;;5021361;28;20033;-58
2021/06/09 04:34:47;;;;;;;4.50;0.80;;;;;;;;;;5000908;28;20128;-58
2021/06/09 04:37:13;;;;;;;5.38;1.02;;;;;;;;;;5020647;28;20155;-57
2021/06/09 04:39:40;;;;;;;3.67;0.90;;;;;;;;;;5019846;28;20985;-59
2021/06/09 04:42:07;;;;;;;3.55;0.90;;;;;;;;;;5020677;28;20421;-58
2021/06/09 04:44:34;;;;;;;5.32;0.88;;;;;;;;;;5020278;28;20063;-59
2021/06/09 04:47:03;;;;;;;3.00;0.85;;;;;;;;;;5020278;28;20075;-59
2021/06/09 04:49:33;;;;;;;2.30;0.60;;;;;;;;;;5001362;28;20402;-59
2021/06/09 04:51:59;;;;;;;3.00;0.90;;;;;;;;;;5021045;28;20512;-58
2021/06/09 04:54:25;;;;;;;3.97;0.90;;;;;;;;;;5020519;28;20125;-60
2021/06/09 04:56:51;;;;;;;3.10;0.88;;;;;;;;;;5019955;28;20046;-59
2021/06/09 04:59:17;;;;;;;3.75;0.90;;;;;;;;;;5021748;28;20048;-59
2021/06/09 05:01:43;;;;;;;4.25;1.00;;;;;;;;;;5018119;28;20068;-58
2021/06/09 05:04:08;;;;;;;3.53;0.90;;;;;;;;;;5010887;28;20040;-58
2021/06/09 05:06:35;;;;;;;4.90;0.90;;;;;;;;;;5019874;28;20041;-55
2021/06/09 05:09:01;;;;;;;3.13;0.85;;;;;;;;;;5021142;28;20043;-58
2021/06/09 05:11:34;;;;;;;4.00;0.90;;;;;;;;;;5019102;28;20045;-57
2021/06/09 05:14:01;;;;;;;3.17;0.88;;;;;;;;;;5019958;28;20056;-58
2021/06/09 05:16:28;;;;;;;4.03;1.00;;;;;;;;;;5019291;28;20580;-59
2021/06/09 05:18:55;;;;;;;4.30;0.80;;;;;;;;;;5019621;28;20115;-59
2021/06/09 05:21:29;;;;;;;3.90;0.90;;;;;;;;;;5019230;28;20048;-59
2021/06/09 05:23:56;;;;;;;6.00;0.98;;;;;;;;;;5020621;28;20056;-60
2021/06/09 05:26:22;;;;;;;5.18;1.30;;;;;;;;;;5018521;28;20502;-59
2021/06/09 05:28:53;;;;;;;4.88;1.00;;;;;;;;;;5019046;28;20034;-59
2021/06/09 05:31:20;;;;;;;4.05;0.93;;;;;;;;;;5019246;28;20128;-58
2021/06/09 05:33:46;;;;;;;2.28;0.77;;;;;;;;;;5022923;28;20109;-58
2021/06/09 05:36:13;;;;;;;2.83;0.80;;;;;;;;;;5020065;28;20123;-58
2021/06/09 05:38:40;;;;;;;3.80;0.90;;;;;;;;;;5013815;28;20042;-58
2021/06/09 05:41:06;;;;;;;7.05;1.00;;;;;;;;;;5018465;28;20641;-58
2021/06/09 05:43:32;;;;;;;4.18;0.70;;;;;;;;;;5022613;28;20049;-58
2021/06/09 05:45:59;;;;;;;3.47;0.80;;;;;;;;;;5023728;28;20528;-59
2021/06/09 05:48:25;;;;;;;3.72;0.90;;;;;;;;;;5022375;28;20134;-59
2021/06/09 05:50:52;;;;;;;5.47;1.00;;;;;;;;;;5024724;28;20097;-59
2021/06/09 05:53:18;;;;;;;4.43;1.20;;;;;;;;;;5020585;28;20037;-59
2021/06/09 05:55:46;;;;;;;3.65;0.80;;;;;;;;;;5022960;28;20610;-59
2021/06/09 05:58:11;;;;;;;3.70;0.93;;;;;;;;;;5022113;28;20532;-59
2021/06/09 06:00:37;;;;;;;5.80;0.90;;;;;;;;;;5023024;28;20124;-60
2021/06/09 06:03:03;;;;;;;5.03;1.00;;;;;;;;;;5023441;28;20045;-58
2021/06/09 06:05:29;;;;;;;4.78;1.17;;;;;;;;;;5023483;28;20052;-58
2021/06/09 06:07:55;;;;;;;4.68;0.93;;;;;;;;;;5024008;28;20052;-60
2021/06/09 06:10:21;;;;;;;4.95;1.20;;;;;;;;;;5022386;28;20091;-59
2021/06/09 06:12:50;;;;;;;3.60;1.10;;;;;;;;;;5022808;28;20079;-60
2021/06/09 06:15:16;;;;;;;4.50;0.90;;;;;;;;;;5022805;28;20037;-58
2021/06/09 06:17:44;;;;;;;3.83;0.82;;;;;;;;;;5022495;28;20029;-59
2021/06/09 06:20:13;;;;;;;4.93;1.00;;;;;;;;;;5022363;28;20037;-60
2021/06/09 06:22:39;;;;;;;3.45;1.13;;;;;;;;;;5021925;28;20198;-59
2021/06/09 06:25:05;;;;;;;6.72;1.08;;;;;;;;;;4996017;28;20060;-57
2021/06/09 06:27:32;;;;;;;7.32;0.80;;;;;;;;;;5021670;28;20049;-59
2021/06/09 06:29:58;;;;;;;6.07;1.08;;;;;;;;;;5021904;28;20167;-59
2021/06/09 06:32:24;;;;;;;4.80;0.90;;;;;;;;;;5021308;28;20045;-59
2021/06/09 06:34:50;;;;;;;4.10;0.82;;;;;;;;;;5021411;28;20037;-57
2021/06/09 06:37:17;;;;;;;4.22;0.80;;;;;;;;;;5022477;28;20432;-59
2021/06/09 06:39:43;;;;;;;3.53;0.88;;;;;;;;;;5021769;28;20041;-59
2021/06/09 06:42:09;;;;;;;4.00;1.55;;;;;;;;;;5021354;28;20107;-58
2021/06/09 06:44:35;;;;;;;6.40;1.00;;;;;;;;;;5021212;28;20037;-60
2021/06/09 06:47:04;;;;;;;3.50;1.00;;;;;;;;;;5022185;28;20045;-59
2021/06/09 06:49:30;;;;;;;3.88;1.10;;;;;;;;;;5022471;28;20599;-60
2021/06/09 06:51:57;;;;;;;6.55;1.27;;;;;;;;;;5021816;28;20041;-58
2021/06/09 06:54:24;;;;;;;3.85;0.98;;;;;;;;;;5020846;28;20126;-60
2021/06/09 06:56:51;;;;;;;2.90;0.80;;;;;;;;;;5021189;28;20072;-59
2021/06/09 06:59:16;;;;;;;4.40;1.00;;;;;;;;;;5022792;28;20046;-58
2021/06/09 07:01:43;;;;;;;4.32;0.90;;;;;;;;;;5020579;28;20045;-58
2021/06/09 07:04:09;;;;;;;5.10;1.10;;;;;;;;;;5022397;28;20528;-59
2021/06/09 07:06:35;;;;;;;3.05;1.08;;;;;;;;;;5019939;28;20045;-59
2021/06/09 07:09:03;;;;;;;4.32;1.00;;;;;;;;;;5011861;28;20060;-58
2021/06/09 07:11:29;;;;;;;2.42;1.00;;;;;;;;;;5010524;28;20038;-58
2021/06/09 07:13:57;;;;;;;3.75;0.95;;;;;;;;;;5003214;28;20042;-58
2021/06/09 07:16:27;;;;;;;4.28;1.02;;;;;;;;;;5000968;28;20125;-57
2021/06/09 07:18:53;;;;;;;3.40;1.02;;;;;;;;;;5001652;28;20108;-56
2021/06/09 07:21:22;;;;;;;4.45;1.20;;;;;;;;;;5000790;28;20045;-55
2021/06/09 07:23:48;;;;;;;4.15;1.10;;;;;;;;;;5001637;28;20128;-58
2021/06/09 07:26:15;;;;;;;5.07;1.20;;;;;;;;;;5003196;28;20052;-57
2021/06/09 07:28:46;;;;;;;5.65;1.30;;;;;;;;;;4997927;28;20042;-58
2021/06/09 07:31:14;;;;;;;4.38;1.02;;;;;;;;;;5000478;28;20046;-58
2021/06/09 07:33:40;;;;;;;5.00;1.35;;;;;;;;;;4999465;28;20046;-58
2021/06/09 07:36:06;;;;;;;4.38;1.23;;;;;;;;;;5001361;28;20033;-56
2021/06/09 07:38:35;;;;;;;3.47;1.20;;;;;;;;;;5000644;28;20041;-58
2021/06/09 07:41:02;;;;;;;8.00;1.30;;;;;;;;;;4999864;28;20045;-58
2021/06/09 07:43:30;;;;;;;3.50;1.30;;;;;;;;;;4999974;28;20142;-57
2021/06/09 07:45:56;;;;;;;4.32;1.42;;;;;;;;;;4999791;28;20034;-58
2021/06/09 07:48:23;;;;;;;4.00;1.30;;;;;;;;;;5000657;28;20119;-58
2021/06/09 07:50:56;;;;;;;6.82;1.70;;;;;;;;;;5002282;28;20161;-58
2021/06/09 07:53:25;;;;;;;4.85;1.50;;;;;;;;;;5001669;28;20080;-59
2021/06/09 07:55:52;;;;;;;5.55;1.45;;;;;;;;;;5000137;28;20040;-56
2021/06/09 07:58:23;;;;;;;3.53;1.63;;;;;;;;;;4999958;28;20042;-58
2021/06/09 08:00:52;;;;;;;4.00;1.70;;;;;;;;;;4999313;28;22133;-58
2021/06/09 08:03:18;;;;;;;5.25;1.75;;;;;;;;;;4999774;28;20056;-55
2021/06/09 08:05:44;;;;;;;3.85;1.45;;;;;;;;;;4999804;28;20037;-59
2021/06/09 08:08:13;;;;;;;7.35;1.75;;;;;;;;;;5000099;28;20044;-58
2021/06/09 08:10:40;;;;;;;5.85;1.98;;;;;;;;;;5014429;28;20052;-57
2021/06/09 08:13:06;;;;;;;5.28;2.05;;;;;;;;;;5019081;28;20148;-57
2021/06/09 08:15:32;;;;;;;5.85;2.10;;;;;;;;;;5002073;28;20125;-57
2021/06/09 08:17:58;;;;;;;4.97;2.00;;;;;;;;;;5019732;28;20048;-59
2021/06/09 08:20:25;;;;;;;4.07;2.13;;;;;;;;;;5018543;28;20181;-58
2021/06/09 08:22:51;;;;;;;4.55;1.98;;;;;;;;;;5020430;28;20625;-58
2021/06/09 08:25:19;;;;;;;4.95;2.58;;;;;;;;;;5021882;28;20041;-58
2021/06/09 08:27:45;;;;;;;4.50;2.45;;;;;;;;;;5002919;28;20103;-58
2021/06/09 08:30:12;;;;;;;6.03;2.47;;;;;;;;;;5020693;28;20075;-59
2021/06/09 08:32:38;;;;;;;5.53;2.88;;;;;;;;;;5020268;28;20041;-57
2021/06/09 08:35:04;;;;;;;5.25;3.13;;;;;;;;;;5003241;28;20042;-57
2021/06/09 08:37:30;;;;;;;5.25;2.60;;;;;;;;;;5020728;28;20048;-59
2021/06/09 08:39:56;;;;;;;5.00;2.70;;;;;;;;;;5020349;28;20456;-58
2021/06/09 08:42:24;;;;;;;7.43;2.63;;;;;;;;;;5021145;28;20053;-58
2021/06/09 08:44:50;;;;;;;6.80;2.60;;;;;;;;;;5020955;28;20086;-58
2021/06/09 08:47:17;;;;;;;7.30;2.75;;;;;;;;;;5020834;28;20052;-57
2021/06/09 08:49:43;;;;;;;6.88;3.08;;;;;;;;;;5019833;28;20041;-57
2021/06/09 08:52:13;;;;;;;4.95;2.67;;;;;;;;;;5020412;28;20034;-58
2021/06/09 08:54:43;;;;;;;6.70;2.85;;;;;;;;;;5019936;28;20696;-57
2021/06/09 08:57:08;;;;;;;5.40;2.95;;;;;;;;;;5020730;28;20631;-58
2021/06/09 08:59:36;;;;;;;5.53;2.78;;;;;;;;;;5020044;28;20029;-58
2021/06/09 09:02:02;;;;;;;5.93;3.00;;;;;;;;;;5020052;28;20069;-57
2021/06/09 09:04:29;;;;;;;8.82;2.95;;;;;;;;;;5018982;28;20044;-57
2021/06/09 09:06:55;;;;;;;5.63;3.10;;;;;;;;;;5019613;28;20037;-58
2021/06/09 09:09:20;;;;;;;6.95;3.25;;;;;;;;;;5019234;28;20066;-58
2021/06/09 09:11:46;;;;;;;6.15;3.25;;;;;;;;;;5018556;28;20533;-59
2021/06/09 09:14:14;;;;;;;4.95;3.30;;;;;;;;;;5018486;28;20759;-59
2021/06/09 09:17:00;;;;;;;5.28;3.33;;;;;;;;;;5022488;28;20071;-60
2021/06/09 09:19:30;;;;;;;4.80;2.80;;;;;;;;;;5022859;28;20087;-60
2021/06/09 09:21:56;;;;;;;6.20;3.25;;;;;;;;;;5023958;28;20533;-60
2021/06/09 09:24:35;;;;;;;7.07;2.88;;;;;;;;;;5023880;28;20144;-60
2021/06/09 09:27:02;;;;;;;6.70;3.10;;;;;;;;;;5022446;28;20520;-59
2021/06/09 09:29:27;;;;;;;6.13;2.83;;;;;;;;;;5023561;28;20045;-60
2021/06/09 09:31:58;;;;;;;6.80;2.65;;;;;;;;;;5024641;28;20721;-58
2021/06/09 09:34:39;;;;;;;4.88;2.78;;;;;;;;;;5022895;28;20404;-59
2021/06/09 09:37:11;;;;;;;6.55;2.95;;;;;;;;;;5024750;28;20373;-60
2021/06/09 09:39:41;;;;;;;5.88;3.13;;;;;;;;;;5024605;28;20042;-59
2021/06/09 09:42:35;;;;;;;7.93;3.35;;;;;;;;;;5024021;28;20053;-59
2021/06/09 09:45:15;;;;;;;7.80;2.72;;;;;;;;;;5023092;28;20057;-58
2021/06/09 09:47:41;;;;;;;6.75;3.10;;;;;;;;;;5023862;28;20087;-59
2021/06/09 09:50:07;;;;;;;6.25;2.78;;;;;;;;;;5023703;28;20037;-59
2021/06/09 09:53:17;;;;;;;6.55;2.83;;;;;;;;;;5023623;28;20128;-59
2021/06/09 09:55:55;;;;;;;5.80;2.50;;;;;;;;;;5015096;28;20673;-58
2021/06/09 09:58:21;;;;;;;8.63;3.42;;;;;;;;;;5024007;28;20124;-59
2021/06/09 10:00:47;;;;;;;11.23;3.83;;;;;;;;;;5024624;28;20497;-58
2021/06/09 10:03:19;;;;;;;7.10;3.40;;;;;;;;;;5024424;28;20051;-58
2021/06/09 10:05:46;;;;;;;5.63;3.17;;;;;;;;;;5023021;28;20041;-59
2021/06/09 10:08:12;;;;;;;5.00;3.00;;;;;;;;;;5023341;28;20132;-55
2021/06/09 10:10:38;;;;;;;5.95;3.00;;;;;;;;;;5022177;28;21140;-58
2021/06/09 10:13:17;;;;;;;6.18;2.83;;;;;;;;;;5022464;28;20112;-58
2021/06/09 10:15:49;;;;;;;5.70;3.30;;;;;;;;;;5023411;28;20052;-58
2021/06/09 10:18:27;;;;;;;6.55;3.35;;;;;;;;;;5005310;28;20067;-59
2021/06/09 10:20:53;;;;;;;7.25;3.35;;;;;;;;;;5020561;28;20053;-59
2021/06/09 10:23:32;;;;;;;9.25;4.03;;;;;;;;;;5021969;28;20049;-59
2021/06/09 10:26:23;;;;;;;9.05;4.38;;;;;;;;;;5022005;28;20049;-57
2021/06/09 10:29:01;;;;;;;6.82;4.13;;;;;;;;;;5016886;28;20045;-59
2021/06/09 10:31:31;;;;;;;6.85;4.45;;;;;;;;;;5023041;28;22158;-59
2021/06/09 10:33:57;;;;;;;13.00;5.07;;;;;;;;;;5022808;28;20631;-57
2021/06/09 10:36:23;;;;;;;9.82;4.90;;;;;;;;;;5022076;28;20041;-58
2021/06/09 10:38:50;;;;;;;7.95;5.15;;;;;;;;;;5022099;28;20041;-59
2021/06/09 10:41:16;;;;;;;6.65;4.28;;;;;;;;;;5020935;28;20347;-58
2021/06/09 10:43:43;;;;;;;7.97;5.05;;;;;;;;;;5020628;28;20053;-57
2021/06/09 10:46:10;;;;;;;9.02;5.07;;;;;;;;;;5022440;28;20057;-58
2021/06/09 10:48:36;;;;;;;10.57;5.50;;;;;;;;;;5020729;28;20029;-59
2021/06/09 10:51:02;;;;;;;8.93;5.78;;;;;;;;;;5021833;28;20570;-59
2021/06/09 10:53:28;;;;;;;8.55;5.75;;;;;;;;;;5021615;28;20048;-59
2021/06/09 10:55:54;;;;;;;7.65;5.35;;;;;;;;;;5022508;28;20044;-59
2021/06/09 10:58:24;;;;;;;11.65;6.53;;;;;;;;;;5020696;28;20045;-59
2021/06/09 11:00:50;;;;;;;11.82;5.63;;;;;;;;;;5021168;28;20247;-59
2021/06/09 11:03:16;;;;;;;8.55;5.57;;;;;;;;;;5020405;28;20053;-58
2021/06/09 11:05:42;;;;;;;9.93;5.90;;;;;;;;;;5022357;28;20040;-58
2021/06/09 11:08:08;;;;;;;15.02;6.53;;;;;;;;;;5022900;28;20037;-59
2021/06/09 11:10:45;;;;;;;12.25;5.57;;;;;;;;;;5020958;28;20121;-60
2021/06/09 11:13:26;;;;;;;11.80;6.80;;;;;;;;;;5021189;28;20099;-60
2021/06/09 11:16:02;;;;;;;12.05;7.25;;;;;;;;;;5019557;28;20099;-59
2021/06/09 11:18:33;;;;;;;10.85;6.40;;;;;;;;;;5020135;28;20037;-61
2021/06/09 11:21:02;;;;;;;13.23;6.38;;;;;;;;;;5021712;28;20112;-57
2021/06/09 11:23:37;;;;;;;13.95;7.53;;;;;;;;;;5020904;28;20053;-57
2021/06/09 11:26:04;;;;;;;14.02;6.88;;;;;;;;;;5022715;28;20041;-57
2021/06/09 11:28:33;;;;;;;9.98;6.68;;;;;;;;;;5020365;28;20522;-58
2021/06/09 11:31:00;;;;;;;14.77;8.30;;;;;;;;;;5020239;28;20075;-55
2021/06/09 11:33:29;;;;;;;11.68;7.60;;;;;;;;;;5019914;28;20041;-62
2021/06/09 11:35:58;;;;;;;10.38;7.13;;;;;;;;;;5021692;28;20044;-61
2021/06/09 11:38:25;;;;;;;13.65;8.55;;;;;;;;;;5021838;28;20037;-63
2021/06/09 11:40:58;;;;;;;13.25;8.70;;;;;;;;;;5022308;28;20082;-63
2021/06/09 11:43:23;;;;;;;13.40;7.50;;;;;;;;;;5021359;28;20045;-63
2021/06/09 11:46:02;;;;;;;13.52;8.05;;;;;;;;;;5021606;28;20076;-63
2021/06/09 11:48:28;;;;;;;13.32;7.43;;;;;;;;;;5021156;28;20052;-63
2021/06/09 11:50:57;;;;;;;16.10;8.57;;;;;;;;;;5021218;28;20033;-62
2021/06/09 11:53:42;;;;;;;13.20;7.82;;;;;;;;;;5021738;28;20064;-64
2021/06/09 11:56:18;;;;;;;14.18;8.30;;;;;;;;;;5019967;28;20124;-63
2021/06/09 11:58:45;;;;;;;11.40;6.88;;;;;;;;;;5020130;28;20117;-63
2021/06/09 12:01:12;;;;;;;15.75;8.25;;;;;;;;;;5022174;28;20040;-63
2021/06/09 12:03:40;;;;;;;17.08;9.00;;;;;;;;;;5020229;28;20136;-63
2021/06/09 12:06:16;;;;;;;18.27;9.23;;;;;;;;;;5021884;28;20379;-63
2021/06/09 12:08:43;;;;;;;15.48;9.05;;;;;;;;;;5021449;28;20040;-65
2021/06/09 12:14:19;;;;;;;18.10;8.07;;;;;;;;;;4978935;23;20435;-59
2021/06/09 12:16:46;;;;;;;13.13;7.88;;;;;;;;;;4883996;29;20795;-55
2021/06/09 12:19:25;;;;;;;14.32;8.27;;;;;;;;;;4888415;29;21032;-56
2021/06/09 12:21:54;;;;;;;13.95;8.82;;;;;;;;;;4891824;29;20513;-55
2021/06/09 12:24:20;;;;;;;12.35;8.90;;;;;;;;;;4900611;29;20044;-55
2021/06/09 12:26:51;;;;;;;16.27;11.98;;;;;;;;;;4900190;29;20055;-55
2021/06/09 12:29:17;;;;;;;17.70;12.50;;;;;;;;;;4900711;29;20560;-55
2021/06/09 12:31:42;;;;;;;16.02;12.95;;;;;;;;;;4900184;29;20054;-56
2021/06/09 12:34:19;;;;;;;19.60;12.40;;;;;;;;;;4900326;29;20130;-56
2021/06/09 12:36:53;;;;;;;19.58;12.55;;;;;;;;;;4900095;29;20036;-53
2021/06/09 12:39:18;;;;;;;16.75;10.20;;;;;;;;;;4900446;29;20040;-57
2021/06/09 12:41:45;;;;;;;18.42;10.98;;;;;;;;;;4900096;29;20040;-57
2021/06/09 12:44:12;;;;;;;14.32;9.15;;;;;;;;;;4900935;29;20064;-57
2021/06/09 12:46:38;;;;;;;17.33;8.88;;;;;;;;;;4900584;29;20048;-58
2021/06/09 12:49:04;;;;;;;13.13;8.90;;;;;;;;;;4899468;29;20533;-56
2021/06/09 12:51:30;;;;;;;14.95;8.38;;;;;;;;;;4899863;29;20509;-57
2021/06/09 12:53:56;;;;;;;12.35;8.27;;;;;;;;;;4901372;29;20048;-59
2021/06/09 12:56:21;;;;;;;12.18;8.18;;;;;;;;;;4899984;29;20047;-55
2021/06/09 12:58:50;;;;;;;13.90;7.72;;;;;;;;;;4882628;29;20051;-58
2021/06/09 13:01:16;;;;;;;12.02;7.60;;;;;;;;;;4892564;29;20035;-59
2021/06/09 13:03:51;;;;;;;14.63;8.13;;;;;;;;;;4888948;29;20286;-57
2021/06/09 13:06:18;;;;;;;11.98;7.57;;;;;;;;;;4898671;29;20055;-55
2021/06/09 13:08:49;;;;;;;14.43;7.85;;;;;;;;;;4898788;29;20044;-57
2021/06/09 13:11:17;;;;;;;11.15;7.22;;;;;;;;;;4898788;29;20041;-57
2021/06/09 13:14:15;;;;;;;10.82;6.75;;;;;;;;;;4898118;29;20148;-57
2021/06/09 13:16:42;;;;;;;14.00;7.20;;;;;;;;;;4850079;29;20042;-55
2021/06/09 13:19:11;;;;;;;10.40;6.60;;;;;;;;;;4899404;29;20211;-56
2021/06/09 13:21:45;;;;;;;13.00;7.50;;;;;;;;;;4898440;29;20533;-56
2021/06/09 13:24:21;;;;;;;9.45;6.95;;;;;;;;;;4900792;29;20166;-56
2021/06/09 13:26:48;;;;;;;12.50;7.28;;;;;;;;;;4898202;29;20116;-53
2021/06/09 13:29:16;;;;;;;13.35;7.95;;;;;;;;;;4896792;29;21112;-56
2021/06/09 13:31:42;;;;;;;19.40;12.80;;;;;;;;;;4895663;29;20124;-58
2021/06/09 13:34:08;;;;;;;12.93;7.65;;;;;;;;;;4879743;29;20044;-57
2021/06/09 13:36:34;;;;;;;14.38;8.43;;;;;;;;;;4889757;29;20044;-56
2021/06/09 13:39:10;;;;;;;12.55;8.00;;;;;;;;;;4886909;29;21609;-55
2021/06/09 13:41:41;;;;;;;15.38;7.78;;;;;;;;;;4875817;29;20040;-57
2021/06/09 13:44:07;;;;;;;17.05;8.38;;;;;;;;;;4889901;29;20086;-54
2021/06/09 13:46:47;;;;;;;11.32;7.32;;;;;;;;;;4891811;29;20043;-56
2021/06/09 13:49:13;;;;;;;14.55;7.45;;;;;;;;;;4896841;29;20126;-57
2021/06/09 13:51:39;;;;;;;14.55;7.80;;;;;;;;;;4897119;29;20040;-54
2021/06/09 13:54:06;;;;;;;13.40;7.88;;;;;;;;;;4893492;29;20111;-55
2021/06/09 13:56:32;;;;;;;14.20;8.82;;;;;;;;;;4881145;29;20747;-54
2021/06/09 13:59:13;;;;;;;11.70;7.45;;;;;;;;;;4884331;29;20126;-56
2021/06/09 14:01:39;;;;;;;16.20;7.93;;;;;;;;;;4884630;29;20513;-56
2021/06/09 14:04:06;;;;;;;15.02;7.47;;;;;;;;;;4887206;29;20171;-54
2021/06/09 14:06:32;;;;;;;11.45;7.35;;;;;;;;;;4887524;29;21915;-57
2021/06/09 14:09:04;;;;;;;11.18;6.72;;;;;;;;;;4869320;29;20070;-56
2021/06/09 14:11:30;;;;;;;12.02;7.05;;;;;;;;;;4884555;29;20040;-56
2021/06/09 14:13:55;;;;;;;14.95;7.05;;;;;;;;;;4885187;29;20656;-54
2021/06/09 14:16:21;;;;;;;12.15;6.80;;;;;;;;;;4886540;29;20047;-56
2021/06/09 14:18:47;;;;;;;9.93;6.35;;;;;;;;;;4868441;29;20039;-56
2021/06/09 14:21:13;;;;;;;11.02;6.40;;;;;;;;;;4871172;29;20051;-53
2021/06/09 14:23:40;;;;;;;10.57;5.95;;;;;;;;;;4885177;29;20116;-56
2021/06/09 14:26:14;;;;;;;10.75;5.78;;;;;;;;;;4886757;29;20538;-56
2021/06/09 14:28:42;;;;;;;9.98;5.32;;;;;;;;;;4885370;29;20052;-56
2021/06/09 14:31:19;;;;;;;13.02;5.07;;;;;;;;;;4886387;29;20421;-53
2021/06/09 14:33:54;;;;;;;9.70;4.80;;;;;;;;;;4885198;29;20048;-54
2021/06/09 14:38:53;;;;;;;9.13;4.82;;;;;;;;;;4887341;29;20903;-54
2021/06/09 14:41:32;;;;;;;9.65;5.03;;;;;;;;;;4885231;29;20134;-55
2021/06/09 14:44:02;;;;;;;11.50;4.80;;;;;;;;;;4887467;29;20158;-56
2021/06/09 14:46:48;;;;;;;11.40;5.15;;;;;;;;;;4883564;29;20697;-56
2021/06/09 14:49:26;;;;;;;9.98;5.10;;;;;;;;;;4885484;29;20048;-57
2021/06/09 14:51:52;;;;;;;16.33;5.22;;;;;;;;;;4884203;29;20051;-54
2021/06/09 14:54:18;;;;;;;8.75;4.88;;;;;;;;;;4884704;29;20036;-56
2021/06/09 14:56:43;;;;;;;8.23;4.05;;;;;;;;;;4884517;29;20236;-56
2021/06/09 14:59:09;;;;;;;8.80;4.40;;;;;;;;;;4886894;29;20044;-54